Details From LIRP - PISA
To LIMJ - Genova Sestri
Flight Number -
Tags generated
Created
Modified
Stats Distance 80 nm / 149 km
Max Altitude 5,500 ft / 1,676 m
Waypoints 3
Social Downloads 4
Likes 0
Share

Download

Looking for another format? Having issues loading an existing format? Contact us
Advertisement - Login to hide

Notes

Basic altitude profile: - Ascent Rate: 2500ft/min - Ascent Speed: 250kts - Cruise Altitude: 35000ft - Cruise Speed: 420kts - Descent Rate: 1500ft/min - Descent Speed: 250kts Options: - Use NATs: yes - Use PACOTS: yes - Use low airways: yes - Use high airways: yes

Route

LIRP LUKIM LIMJ

ID Type Via Altitude (ft/m) Position (lat/lon) Dist (leg/tot) Name
O LIRP APT - 0 / 0 43.68388 / 10.39272 - / 0 nm PISA
LUKIM FIX - 5,500 / 1,676 44.14000 / 9.30861 54 / 54 nm
O LIMJ APT - 0 / 0 44.41196 / 8.84187 25 / 80 nm Genova Sestri

Altitude Profile

Advertisement - Login to hide

LIRP

Details ICAO LIRP (PSA)
Name Pisa-San Giusto "Galileo Galilei"
Region Italy
Timezone Europe/Rome (UTC+2.0)
Stats Elevation 4 ft / 1 m (AMSL)
Location 43.682800° 10.395600°
Runways 2
Magnetic Variation 3.194° E

METAR

LIRP 271515Z 33008KT 9999 FEW018CB 32/15 Q1012 NOSIG

Decode

TAF

TAF LIRP 271100Z 2712/2812 34012KT CAVOK BECMG 2720/2722 15006KT

Decode

Departure Runways

ID Width Length Bearing (true/mag) Surface Threshold Overrun Markings Lighting
04L 148 ft / 45 m 8,984 ft / 2,738 m 36.71° / 33.52° ASPHALT 791 ft / 241 m 0 ft / 0 m PREC-APP CENTERLINE EDGE THRESHOLD SALS REIL-OMNI
04R 148 ft / 45 m 9,825 ft / 2,995 m 36.73° / 33.53° ASPHALT 463 ft / 141 m 0 ft / 0 m PREC-APP CENTERLINE EDGE THRESHOLD CALVERT-ILS TDZ REIL-OMNI
22L 148 ft / 45 m 9,825 ft / 2,995 m 216.74° / 213.55° ASPHALT 833 ft / 254 m 190 ft / 58 m PREC-APP CENTERLINE EDGE THRESHOLD SALS REIL-OMNI
22R 148 ft / 45 m 8,984 ft / 2,738 m 216.73° / 213.53° ASPHALT 0 ft / 0 m 190 ft / 58 m PREC-APP CENTERLINE EDGE THRESHOLD REIL-OMNI

LIMJ

Details ICAO LIMJ (GOA)
Name Genova-Sestri "Cristoforo Colombo"
Region Italy
Timezone Unknown
Stats Elevation 13 ft / 4 m (AMSL)
Location 44.412000° 8.841870°
Runways 1
Magnetic Variation 2.891° E

METAR

LIMJ 271520Z 27005KT CAVOK 27/20 Q1012

Decode

TAF

TAF LIMJ 271100Z 2712/2812 VRB05KT CAVOK TEMPO 2810/2812 4000 TSRA

Decode

Destination Runways

ID Width Length Bearing (true/mag) Surface Threshold Overrun Markings Lighting
10 148 ft / 45 m 9,576 ft / 2,919 m 105.34° / 102.45° ASPHALT 0 ft / 0 m 197 ft / 60 m PREC-APP CENTERLINE EDGE THRESHOLD REIL-OMNI
28 148 ft / 45 m 9,576 ft / 2,919 m 285.37° / 282.48° ASPHALT 535 ft / 163 m 0 ft / 0 m PREC-APP CENTERLINE EDGE THRESHOLD SALS REIL-OMNI

Approach Navaids

Runway Type Ident Frequency Range Bearing (true/mag) Slope Elevation
28 DME GSE 109.30 MHz 18 nm / 33 km - - 26 ft / 8 m (AMSL)
28 LOC-ILS GSE 109.30 MHz 18 nm / 33 km 285.40° / 282.51 ° - 9 ft / 3 m (AMSL)
28 GS GSE 109.30 MHz 10 nm / 19 km 285.40° / 282.51 ° 3.17° 26 ft / 8 m (AMSL)

Popular Alternatives